sensor_id;sensor_type;location;lat;lon;timestamp;P1;durP1;ratioP1;P2;durP2;ratioP2
52744;SDS011;38637;49.984;20.426;2022-11-20T00:00:48;105.30;;;68.63;;
52744;SDS011;38637;49.984;20.426;2022-11-20T00:03:13;115.65;;;75.35;;
52744;SDS011;38637;49.984;20.426;2022-11-20T00:05:39;110.73;;;76.43;;
52744;SDS011;38637;49.984;20.426;2022-11-20T00:08:04;111.70;;;76.37;;
52744;SDS011;38637;49.984;20.426;2022-11-20T00:10:30;117.23;;;77.20;;
52744;SDS011;38637;49.984;20.426;2022-11-20T00:12:57;111.63;;;71.33;;
52744;SDS011;38637;49.984;20.426;2022-11-20T00:15:23;117.27;;;78.43;;
52744;SDS011;38637;49.984;20.426;2022-11-20T00:17:48;121.27;;;76.77;;
52744;SDS011;38637;49.984;20.426;2022-11-20T00:20:14;120.13;;;81.17;;
52744;SDS011;38637;49.984;20.426;2022-11-20T00:22:39;115.23;;;80.30;;
52744;SDS011;38637;49.984;20.426;2022-11-20T00:25:04;117.47;;;75.17;;
52744;SDS011;38637;49.984;20.426;2022-11-20T00:27:30;114.07;;;71.90;;
52744;SDS011;38637;49.984;20.426;2022-11-20T00:29:55;119.17;;;75.53;;
52744;SDS011;38637;49.984;20.426;2022-11-20T00:32:21;117.20;;;74.67;;
52744;SDS011;38637;49.984;20.426;2022-11-20T00:34:46;117.13;;;74.73;;
52744;SDS011;38637;49.984;20.426;2022-11-20T00:37:11;122.63;;;77.87;;
52744;SDS011;38637;49.984;20.426;2022-11-20T00:39:36;120.17;;;77.47;;
52744;SDS011;38637;49.984;20.426;2022-11-20T00:42:02;121.37;;;80.03;;
52744;SDS011;38637;49.984;20.426;2022-11-20T00:44:27;113.40;;;73.03;;
52744;SDS011;38637;49.984;20.426;2022-11-20T00:46:52;120.13;;;76.27;;
52744;SDS011;38637;49.984;20.426;2022-11-20T00:49:18;119.20;;;79.73;;
52744;SDS011;38637;49.984;20.426;2022-11-20T00:51:43;123.07;;;86.47;;
52744;SDS011;38637;49.984;20.426;2022-11-20T00:54:08;122.40;;;77.67;;
52744;SDS011;38637;49.984;20.426;2022-11-20T00:56:34;117.30;;;74.20;;
52744;SDS011;38637;49.984;20.426;2022-11-20T00:58:59;117.83;;;75.40;;
52744;SDS011;38637;49.984;20.426;2022-11-20T01:01:26;108.45;;;70.95;;
52744;SDS011;38637;49.984;20.426;2022-11-20T01:03:54;123.20;;;73.97;;
52744;SDS011;38637;49.984;20.426;2022-11-20T01:06:22;114.80;;;71.40;;
52744;SDS011;38637;49.984;20.426;2022-11-20T01:08:48;111.35;;;72.00;;
52744;SDS011;38637;49.984;20.426;2022-11-20T01:11:16;116.47;;;76.00;;
52744;SDS011;38637;49.984;20.426;2022-11-20T01:13:47;104.97;;;70.23;;
52744;SDS011;38637;49.984;20.426;2022-11-20T01:18:41;107.30;;;66.07;;
52744;SDS011;38637;49.984;20.426;2022-11-20T01:21:09;117.00;;;78.47;;
52744;SDS011;38637;49.984;20.426;2022-11-20T01:23:37;113.70;;;71.30;;
52744;SDS011;38637;49.984;20.426;2022-11-20T01:26:04;117.90;;;73.80;;
52744;SDS011;38637;49.984;20.426;2022-11-20T01:28:31;114.00;;;75.10;;
52744;SDS011;38637;49.984;20.426;2022-11-20T01:30:57;119.30;;;75.50;;
52744;SDS011;38637;49.984;20.426;2022-11-20T01:33:23;137.43;;;89.43;;
52744;SDS011;38637;49.984;20.426;2022-11-20T01:35:48;135.63;;;88.57;;
52744;SDS011;38637;49.984;20.426;2022-11-20T01:38:14;126.47;;;84.83;;
52744;SDS011;38637;49.984;20.426;2022-11-20T01:40:40;126.18;;;83.50;;
52744;SDS011;38637;49.984;20.426;2022-11-20T01:43:17;119.87;;;74.53;;
52744;SDS011;38637;49.984;20.426;2022-11-20T01:48:18;118.13;;;79.40;;
52744;SDS011;38637;49.984;20.426;2022-11-20T01:50:46;121.30;;;79.77;;
52744;SDS011;38637;49.984;20.426;2022-11-20T01:53:12;116.87;;;80.90;;
52744;SDS011;38637;49.984;20.426;2022-11-20T01:55:41;122.13;;;77.03;;
52744;SDS011;38637;49.984;20.426;2022-11-20T01:58:12;122.73;;;77.13;;
52744;SDS011;38637;49.984;20.426;2022-11-20T02:00:38;115.38;;;74.22;;
52744;SDS011;38637;49.984;20.426;2022-11-20T02:03:07;114.13;;;74.22;;
52744;SDS011;38637;49.984;20.426;2022-11-20T02:08:30;129.70;;;84.23;;
52744;SDS011;38637;49.984;20.426;2022-11-20T02:10:57;149.33;;;94.70;;
52744;SDS011;38637;49.984;20.426;2022-11-20T02:13:22;125.13;;;80.50;;
52744;SDS011;38637;49.984;20.426;2022-11-20T02:16:08;131.10;;;90.50;;
52744;SDS011;38637;49.984;20.426;2022-11-20T02:18:55;126.88;;;84.30;;
52744;SDS011;38637;49.984;20.426;2022-11-20T02:26:59;122.93;;;80.67;;
52744;SDS011;38637;49.984;20.426;2022-11-20T02:32:04;118.37;;;75.43;;
52744;SDS011;38637;49.984;20.426;2022-11-20T02:34:30;132.18;;;86.82;;
52744;SDS011;38637;49.984;20.426;2022-11-20T02:36:56;130.23;;;81.57;;
52744;SDS011;38637;49.984;20.426;2022-11-20T02:39:23;129.88;;;81.78;;
52744;SDS011;38637;49.984;20.426;2022-11-20T02:41:50;137.63;;;86.07;;
52744;SDS011;38637;49.984;20.426;2022-11-20T02:44:18;105.90;;;68.40;;
52744;SDS011;38637;49.984;20.426;2022-11-20T02:46:44;99.43;;;57.70;;
52744;SDS011;38637;49.984;20.426;2022-11-20T02:49:10;80.60;;;50.33;;
52744;SDS011;38637;49.984;20.426;2022-11-20T02:51:35;79.60;;;50.40;;
52744;SDS011;38637;49.984;20.426;2022-11-20T02:54:01;92.50;;;59.53;;
52744;SDS011;38637;49.984;20.426;2022-11-20T02:56:26;91.70;;;55.30;;
52744;SDS011;38637;49.984;20.426;2022-11-20T02:58:52;95.13;;;57.25;;
52744;SDS011;38637;49.984;20.426;2022-11-20T03:01:17;93.13;;;54.47;;
52744;SDS011;38637;49.984;20.426;2022-11-20T03:03:43;93.90;;;60.47;;
52744;SDS011;38637;49.984;20.426;2022-11-20T03:06:08;86.43;;;53.67;;
52744;SDS011;38637;49.984;20.426;2022-11-20T03:08:34;89.63;;;54.80;;
52744;SDS011;38637;49.984;20.426;2022-11-20T03:11:06;86.73;;;53.90;;
52744;SDS011;38637;49.984;20.426;2022-11-20T03:13:32;89.00;;;56.20;;
52744;SDS011;38637;49.984;20.426;2022-11-20T03:15:58;92.78;;;54.70;;
52744;SDS011;38637;49.984;20.426;2022-11-20T03:18:29;82.17;;;53.30;;
52744;SDS011;38637;49.984;20.426;2022-11-20T03:20:56;85.17;;;54.10;;
52744;SDS011;38637;49.984;20.426;2022-11-20T03:23:24;81.53;;;54.23;;
52744;SDS011;38637;49.984;20.426;2022-11-20T03:25:49;95.37;;;57.03;;
52744;SDS011;38637;49.984;20.426;2022-11-20T03:28:14;100.57;;;63.90;;
52744;SDS011;38637;49.984;20.426;2022-11-20T03:30:40;98.87;;;60.97;;
52744;SDS011;38637;49.984;20.426;2022-11-20T03:33:05;87.23;;;51.87;;
52744;SDS011;38637;49.984;20.426;2022-11-20T03:35:31;89.47;;;57.37;;
52744;SDS011;38637;49.984;20.426;2022-11-20T03:37:57;77.50;;;50.53;;
52744;SDS011;38637;49.984;20.426;2022-11-20T03:40:22;82.80;;;53.17;;
52744;SDS011;38637;49.984;20.426;2022-11-20T03:42:48;88.50;;;56.97;;
52744;SDS011;38637;49.984;20.426;2022-11-20T03:45:14;79.73;;;52.63;;
52744;SDS011;38637;49.984;20.426;2022-11-20T03:47:41;83.93;;;51.57;;
52744;SDS011;38637;49.984;20.426;2022-11-20T03:50:08;84.00;;;52.25;;
52744;SDS011;38637;49.984;20.426;2022-11-20T03:54:59;82.77;;;48.00;;
52744;SDS011;38637;49.984;20.426;2022-11-20T03:57:25;80.93;;;49.33;;
52744;SDS011;38637;49.984;20.426;2022-11-20T03:59:50;79.30;;;48.07;;
52744;SDS011;38637;49.984;20.426;2022-11-20T04:02:15;74.60;;;47.20;;
52744;SDS011;38637;49.984;20.426;2022-11-20T04:04:41;75.83;;;47.17;;
52744;SDS011;38637;49.984;20.426;2022-11-20T04:07:06;83.37;;;50.60;;
52744;SDS011;38637;49.984;20.426;2022-11-20T04:09:31;83.53;;;51.00;;
52744;SDS011;38637;49.984;20.426;2022-11-20T04:11:57;89.20;;;52.43;;
52744;SDS011;38637;49.984;20.426;2022-11-20T04:14:22;90.87;;;52.03;;
52744;SDS011;38637;49.984;20.426;2022-11-20T04:16:47;87.37;;;52.23;;
52744;SDS011;38637;49.984;20.426;2022-11-20T04:19:14;82.13;;;50.20;;
52744;SDS011;38637;49.984;20.426;2022-11-20T04:21:41;87.10;;;52.97;;
52744;SDS011;38637;49.984;20.426;2022-11-20T04:24:07;90.53;;;52.78;;
52744;SDS011;38637;49.984;20.426;2022-11-20T04:26:32;87.87;;;52.80;;
52744;SDS011;38637;49.984;20.426;2022-11-20T04:28:57;84.77;;;51.60;;
52744;SDS011;38637;49.984;20.426;2022-11-20T04:31:24;90.60;;;52.57;;
52744;SDS011;38637;49.984;20.426;2022-11-20T04:33:51;85.40;;;51.93;;
52744;SDS011;38637;49.984;20.426;2022-11-20T04:36:17;81.67;;;50.60;;
52744;SDS011;38637;49.984;20.426;2022-11-20T04:38:50;75.53;;;48.80;;
52744;SDS011;38637;49.984;20.426;2022-11-20T04:41:19;81.47;;;48.27;;
52744;SDS011;38637;49.984;20.426;2022-11-20T04:43:46;72.87;;;49.50;;
52744;SDS011;38637;49.984;20.426;2022-11-20T04:46:13;78.73;;;47.10;;
52744;SDS011;38637;49.984;20.426;2022-11-20T04:48:39;78.35;;;48.28;;
52744;SDS011;38637;49.984;20.426;2022-11-20T04:51:05;68.27;;;44.40;;
52744;SDS011;38637;49.984;20.426;2022-11-20T04:53:30;82.40;;;47.77;;
52744;SDS011;38637;49.984;20.426;2022-11-20T04:56:00;79.17;;;49.50;;
52744;SDS011;38637;49.984;20.426;2022-11-20T04:58:26;72.80;;;46.80;;
52744;SDS011;38637;49.984;20.426;2022-11-20T05:00:51;72.73;;;45.53;;
52744;SDS011;38637;49.984;20.426;2022-11-20T05:03:17;76.73;;;48.33;;
52744;SDS011;38637;49.984;20.426;2022-11-20T05:05:42;72.13;;;47.63;;
52744;SDS011;38637;49.984;20.426;2022-11-20T05:08:07;79.67;;;47.43;;
52744;SDS011;38637;49.984;20.426;2022-11-20T05:10:32;75.93;;;46.90;;
52744;SDS011;38637;49.984;20.426;2022-11-20T05:12:58;74.80;;;49.13;;
52744;SDS011;38637;49.984;20.426;2022-11-20T05:15:23;70.00;;;44.13;;
52744;SDS011;38637;49.984;20.426;2022-11-20T05:17:49;72.83;;;44.97;;
52744;SDS011;38637;49.984;20.426;2022-11-20T05:20:15;78.50;;;46.78;;
52744;SDS011;38637;49.984;20.426;2022-11-20T05:22:41;80.00;;;49.30;;
52744;SDS011;38637;49.984;20.426;2022-11-20T05:25:06;89.83;;;51.03;;
52744;SDS011;38637;49.984;20.426;2022-11-20T05:27:32;111.60;;;59.97;;
52744;SDS011;38637;49.984;20.426;2022-11-20T05:29:57;90.77;;;54.23;;
52744;SDS011;38637;49.984;20.426;2022-11-20T05:32:22;127.43;;;64.17;;
52744;SDS011;38637;49.984;20.426;2022-11-20T05:34:50;94.93;;;54.93;;
52744;SDS011;38637;49.984;20.426;2022-11-20T05:37:16;161.47;;;61.20;;
52744;SDS011;38637;49.984;20.426;2022-11-20T05:39:41;102.37;;;60.40;;
52744;SDS011;38637;49.984;20.426;2022-11-20T05:42:06;168.67;;;61.70;;
52744;SDS011;38637;49.984;20.426;2022-11-20T05:44:50;179.30;;;67.07;;
52744;SDS011;38637;49.984;20.426;2022-11-20T05:47:15;232.07;;;80.90;;
52744;SDS011;38637;49.984;20.426;2022-11-20T05:49:41;242.03;;;71.40;;
52744;SDS011;38637;49.984;20.426;2022-11-20T05:52:06;163.90;;;71.40;;
52744;SDS011;38637;49.984;20.426;2022-11-20T05:54:31;104.30;;;60.13;;
52744;SDS011;38637;49.984;20.426;2022-11-20T05:56:57;104.97;;;60.13;;
52744;SDS011;38637;49.984;20.426;2022-11-20T05:59:22;110.67;;;59.40;;
52744;SDS011;38637;49.984;20.426;2022-11-20T06:01:47;131.20;;;71.83;;
52744;SDS011;38637;49.984;20.426;2022-11-20T06:04:13;169.70;;;87.13;;
52744;SDS011;38637;49.984;20.426;2022-11-20T06:06:38;187.80;;;76.40;;
52744;SDS011;38637;49.984;20.426;2022-11-20T06:09:03;190.97;;;61.13;;
52744;SDS011;38637;49.984;20.426;2022-11-20T06:11:29;269.80;;;66.57;;
52744;SDS011;38637;49.984;20.426;2022-11-20T06:13:54;200.53;;;79.33;;
52744;SDS011;38637;49.984;20.426;2022-11-20T06:16:19;178.93;;;70.67;;
52744;SDS011;38637;49.984;20.426;2022-11-20T06:21:13;203.13;;;66.47;;
52744;SDS011;38637;49.984;20.426;2022-11-20T06:23:41;219.03;;;66.50;;
52744;SDS011;38637;49.984;20.426;2022-11-20T06:26:09;175.13;;;66.73;;
52744;SDS011;38637;49.984;20.426;2022-11-20T06:28:36;209.93;;;72.40;;
52744;SDS011;38637;49.984;20.426;2022-11-20T06:31:03;249.38;;;75.97;;
52744;SDS011;38637;49.984;20.426;2022-11-20T06:33:29;191.18;;;79.03;;
52744;SDS011;38637;49.984;20.426;2022-11-20T06:35:58;147.60;;;66.83;;
52744;SDS011;38637;49.984;20.426;2022-11-20T06:38:25;172.23;;;67.33;;
52744;SDS011;38637;49.984;20.426;2022-11-20T06:40:51;229.10;;;72.75;;
52744;SDS011;38637;49.984;20.426;2022-11-20T06:43:17;319.80;;;69.93;;
52744;SDS011;38637;49.984;20.426;2022-11-20T06:45:42;240.43;;;71.63;;
52744;SDS011;38637;49.984;20.426;2022-11-20T06:48:08;270.60;;;84.60;;
52744;SDS011;38637;49.984;20.426;2022-11-20T06:50:34;230.13;;;73.55;;
52744;SDS011;38637;49.984;20.426;2022-11-20T06:53:01;180.80;;;76.07;;
52744;SDS011;38637;49.984;20.426;2022-11-20T06:55:27;264.60;;;74.43;;
52744;SDS011;38637;49.984;20.426;2022-11-20T06:57:52;154.77;;;66.63;;
52744;SDS011;38637;49.984;20.426;2022-11-20T07:00:18;154.17;;;66.30;;
52744;SDS011;38637;49.984;20.426;2022-11-20T07:02:43;114.53;;;61.83;;
52744;SDS011;38637;49.984;20.426;2022-11-20T07:05:08;122.17;;;63.63;;
52744;SDS011;38637;49.984;20.426;2022-11-20T07:07:34;130.60;;;66.10;;
52744;SDS011;38637;49.984;20.426;2022-11-20T07:09:59;125.17;;;76.33;;
52744;SDS011;38637;49.984;20.426;2022-11-20T07:12:24;112.60;;;70.60;;
52744;SDS011;38637;49.984;20.426;2022-11-20T07:14:50;116.77;;;70.97;;
52744;SDS011;38637;49.984;20.426;2022-11-20T07:17:15;113.20;;;69.80;;
52744;SDS011;38637;49.984;20.426;2022-11-20T07:19:40;112.93;;;66.10;;
52744;SDS011;38637;49.984;20.426;2022-11-20T07:22:07;102.50;;;60.60;;
52744;SDS011;38637;49.984;20.426;2022-11-20T07:24:33;125.83;;;72.07;;
52744;SDS011;38637;49.984;20.426;2022-11-20T07:26:58;109.87;;;68.80;;
52744;SDS011;38637;49.984;20.426;2022-11-20T07:29:23;106.23;;;67.17;;
52744;SDS011;38637;49.984;20.426;2022-11-20T07:31:49;113.23;;;71.47;;
52744;SDS011;38637;49.984;20.426;2022-11-20T07:34:14;98.20;;;61.50;;
52744;SDS011;38637;49.984;20.426;2022-11-20T07:36:39;105.43;;;66.53;;
52744;SDS011;38637;49.984;20.426;2022-11-20T07:39:05;101.23;;;64.40;;
52744;SDS011;38637;49.984;20.426;2022-11-20T07:41:30;98.30;;;60.97;;
52744;SDS011;38637;49.984;20.426;2022-11-20T07:43:56;106.03;;;66.27;;
52744;SDS011;38637;49.984;20.426;2022-11-20T07:46:21;103.63;;;69.33;;
52744;SDS011;38637;49.984;20.426;2022-11-20T07:48:46;116.43;;;70.37;;
52744;SDS011;38637;49.984;20.426;2022-11-20T07:51:12;102.03;;;66.67;;
52744;SDS011;38637;49.984;20.426;2022-11-20T07:53:38;107.32;;;68.75;;
52744;SDS011;38637;49.984;20.426;2022-11-20T07:56:04;106.97;;;69.53;;
52744;SDS011;38637;49.984;20.426;2022-11-20T07:58:29;103.03;;;70.03;;
52744;SDS011;38637;49.984;20.426;2022-11-20T08:00:55;142.13;;;90.60;;
52744;SDS011;38637;49.984;20.426;2022-11-20T08:03:21;128.13;;;79.33;;
52744;SDS011;38637;49.984;20.426;2022-11-20T08:05:46;107.70;;;69.97;;
52744;SDS011;38637;49.984;20.426;2022-11-20T08:08:11;98.03;;;66.07;;
52744;SDS011;38637;49.984;20.426;2022-11-20T08:10:37;102.50;;;66.80;;
52744;SDS011;38637;49.984;20.426;2022-11-20T08:13:02;106.10;;;70.47;;
52744;SDS011;38637;49.984;20.426;2022-11-20T08:15:49;93.53;;;61.58;;
52744;SDS011;38637;49.984;20.426;2022-11-20T08:18:16;100.15;;;65.60;;
52744;SDS011;38637;49.984;20.426;2022-11-20T08:20:42;93.70;;;63.47;;
52744;SDS011;38637;49.984;20.426;2022-11-20T08:23:08;105.83;;;64.90;;
52744;SDS011;38637;49.984;20.426;2022-11-20T08:25:34;98.77;;;64.13;;
52744;SDS011;38637;49.984;20.426;2022-11-20T08:28:06;97.03;;;65.27;;
52744;SDS011;38637;49.984;20.426;2022-11-20T08:30:33;107.13;;;69.33;;
52744;SDS011;38637;49.984;20.426;2022-11-20T08:33:00;105.05;;;68.93;;
52744;SDS011;38637;49.984;20.426;2022-11-20T08:35:28;103.65;;;68.78;;
52744;SDS011;38637;49.984;20.426;2022-11-20T08:37:57;99.05;;;64.57;;
52744;SDS011;38637;49.984;20.426;2022-11-20T08:40:22;89.13;;;61.13;;
52744;SDS011;38637;49.984;20.426;2022-11-20T08:42:48;94.80;;;63.17;;
52744;SDS011;38637;49.984;20.426;2022-11-20T08:45:14;89.00;;;56.97;;
52744;SDS011;38637;49.984;20.426;2022-11-20T08:47:41;91.13;;;60.83;;
52744;SDS011;38637;49.984;20.426;2022-11-20T08:50:07;111.78;;;72.75;;
52744;SDS011;38637;49.984;20.426;2022-11-20T08:52:34;92.68;;;61.55;;
52744;SDS011;38637;49.984;20.426;2022-11-20T08:54:59;94.43;;;61.57;;
52744;SDS011;38637;49.984;20.426;2022-11-20T08:57:24;104.50;;;63.17;;
52744;SDS011;38637;49.984;20.426;2022-11-20T08:59:49;185.00;;;118.97;;
52744;SDS011;38637;49.984;20.426;2022-11-20T09:02:15;102.70;;;66.03;;
52744;SDS011;38637;49.984;20.426;2022-11-20T09:04:40;106.07;;;71.57;;
52744;SDS011;38637;49.984;20.426;2022-11-20T09:07:05;119.20;;;74.97;;
52744;SDS011;38637;49.984;20.426;2022-11-20T09:09:31;112.27;;;70.40;;
52744;SDS011;38637;49.984;20.426;2022-11-20T09:11:57;113.65;;;69.65;;
52744;SDS011;38637;49.984;20.426;2022-11-20T09:14:22;138.60;;;81.70;;
52744;SDS011;38637;49.984;20.426;2022-11-20T09:16:53;166.40;;;91.43;;
52744;SDS011;38637;49.984;20.426;2022-11-20T09:19:19;123.60;;;75.47;;
52744;SDS011;38637;49.984;20.426;2022-11-20T09:21:44;119.80;;;76.87;;
52744;SDS011;38637;49.984;20.426;2022-11-20T09:24:09;116.73;;;76.40;;
52744;SDS011;38637;49.984;20.426;2022-11-20T09:26:35;163.17;;;104.03;;
52744;SDS011;38637;49.984;20.426;2022-11-20T09:29:00;106.63;;;69.50;;
52744;SDS011;38637;49.984;20.426;2022-11-20T09:31:25;334.20;;;201.80;;
52744;SDS011;38637;49.984;20.426;2022-11-20T09:33:51;105.80;;;70.83;;
52744;SDS011;38637;49.984;20.426;2022-11-20T09:36:17;143.57;;;93.93;;
52744;SDS011;38637;49.984;20.426;2022-11-20T09:38:44;184.55;;;126.80;;
52744;SDS011;38637;49.984;20.426;2022-11-20T09:51:56;93.78;;;62.30;;
52744;SDS011;38637;49.984;20.426;2022-11-20T09:54:30;94.63;;;62.30;;
52744;SDS011;38637;49.984;20.426;2022-11-20T09:57:00;91.97;;;62.05;;
52744;SDS011;38637;49.984;20.426;2022-11-20T09:59:42;93.93;;;59.47;;
52744;SDS011;38637;49.984;20.426;2022-11-20T10:05:00;92.35;;;59.45;;
52744;SDS011;38637;49.984;20.426;2022-11-20T10:07:40;102.47;;;63.33;;
52744;SDS011;38637;49.984;20.426;2022-11-20T10:10:43;96.32;;;59.58;;
52744;SDS011;38637;49.984;20.426;2022-11-20T10:18:51;108.15;;;64.95;;
52744;SDS011;38637;49.984;20.426;2022-11-20T10:21:36;107.68;;;68.13;;
52744;SDS011;38637;49.984;20.426;2022-11-20T10:30:11;101.15;;;64.15;;
52744;SDS011;38637;49.984;20.426;2022-11-20T10:32:48;104.65;;;62.50;;
52744;SDS011;38637;49.984;20.426;2022-11-20T10:38:02;105.38;;;65.72;;
52744;SDS011;38637;49.984;20.426;2022-11-20T10:43:11;99.85;;;62.75;;
52744;SDS011;38637;49.984;20.426;2022-11-20T10:45:44;103.88;;;64.13;;
52744;SDS011;38637;49.984;20.426;2022-11-20T10:48:16;101.88;;;65.13;;
52744;SDS011;38637;49.984;20.426;2022-11-20T11:01:42;107.10;;;68.47;;
52744;SDS011;38637;49.984;20.426;2022-11-20T11:04:18;94.90;;;63.22;;
52744;SDS011;38637;49.984;20.426;2022-11-20T11:07:09;95.22;;;64.15;;
52744;SDS011;38637;49.984;20.426;2022-11-20T11:09:41;101.60;;;64.43;;
52744;SDS011;38637;49.984;20.426;2022-11-20T11:12:11;95.68;;;62.50;;
52744;SDS011;38637;49.984;20.426;2022-11-20T11:14:43;100.73;;;64.63;;
52744;SDS011;38637;49.984;20.426;2022-11-20T11:17:21;104.70;;;63.70;;
52744;SDS011;38637;49.984;20.426;2022-11-20T11:22:32;97.30;;;63.03;;
52744;SDS011;38637;49.984;20.426;2022-11-20T11:25:00;99.35;;;62.60;;
52744;SDS011;38637;49.984;20.426;2022-11-20T11:27:25;100.00;;;63.55;;
52744;SDS011;38637;49.984;20.426;2022-11-20T11:30:01;104.80;;;65.37;;
52744;SDS011;38637;49.984;20.426;2022-11-20T11:32:29;97.93;;;63.85;;
52744;SDS011;38637;49.984;20.426;2022-11-20T11:35:01;100.40;;;66.33;;
52744;SDS011;38637;49.984;20.426;2022-11-20T11:37:32;94.30;;;62.30;;
52744;SDS011;38637;49.984;20.426;2022-11-20T11:40:00;91.15;;;57.75;;
52744;SDS011;38637;49.984;20.426;2022-11-20T11:42:27;90.15;;;59.85;;
52744;SDS011;38637;49.984;20.426;2022-11-20T11:44:53;93.38;;;58.05;;
52744;SDS011;38637;49.984;20.426;2022-11-20T11:47:31;96.25;;;60.97;;
52744;SDS011;38637;49.984;20.426;2022-11-20T11:50:13;94.88;;;58.67;;
52744;SDS011;38637;49.984;20.426;2022-11-20T12:00:51;99.65;;;64.55;;
52744;SDS011;38637;49.984;20.426;2022-11-20T12:03:24;98.15;;;64.18;;
52744;SDS011;38637;49.984;20.426;2022-11-20T12:05:59;112.75;;;73.65;;
52744;SDS011;38637;49.984;20.426;2022-11-20T12:11:39;143.45;;;84.93;;
52744;SDS011;38637;49.984;20.426;2022-11-20T12:16:40;96.07;;;62.83;;
52744;SDS011;38637;49.984;20.426;2022-11-20T12:19:12;100.90;;;63.83;;
52744;SDS011;38637;49.984;20.426;2022-11-20T12:22:01;100.45;;;63.83;;
52744;SDS011;38637;49.984;20.426;2022-11-20T12:30:17;107.22;;;70.55;;
52744;SDS011;38637;49.984;20.426;2022-11-20T12:35:39;126.53;;;78.57;;
52744;SDS011;38637;49.984;20.426;2022-11-20T12:52:48;105.30;;;70.22;;
52744;SDS011;38637;49.984;20.426;2022-11-20T13:01:00;106.55;;;68.45;;
52744;SDS011;38637;49.984;20.426;2022-11-20T13:03:40;106.97;;;67.55;;
52744;SDS011;38637;49.984;20.426;2022-11-20T13:06:15;96.25;;;65.13;;
52744;SDS011;38637;49.984;20.426;2022-11-20T13:08:48;108.90;;;67.93;;
52744;SDS011;38637;49.984;20.426;2022-11-20T13:11:30;132.20;;;85.93;;
52744;SDS011;38637;49.984;20.426;2022-11-20T13:19:40;102.47;;;67.72;;
52744;SDS011;38637;49.984;20.426;2022-11-20T13:22:07;105.60;;;67.00;;
52744;SDS011;38637;49.984;20.426;2022-11-20T13:24:33;120.10;;;79.82;;
52744;SDS011;38637;49.984;20.426;2022-11-20T13:27:21;113.63;;;75.33;;
52744;SDS011;38637;49.984;20.426;2022-11-20T13:29:47;113.05;;;75.57;;
52744;SDS011;38637;49.984;20.426;2022-11-20T13:32:25;111.32;;;71.70;;
52744;SDS011;38637;49.984;20.426;2022-11-20T13:34:56;104.35;;;70.55;;
52744;SDS011;38637;49.984;20.426;2022-11-20T13:37:36;113.65;;;73.78;;
52744;SDS011;38637;49.984;20.426;2022-11-20T13:42:35;108.20;;;70.03;;
52744;SDS011;38637;49.984;20.426;2022-11-20T13:45:09;126.05;;;81.28;;
52744;SDS011;38637;49.984;20.426;2022-11-20T13:47:48;118.20;;;75.85;;
52744;SDS011;38637;49.984;20.426;2022-11-20T13:50:16;109.15;;;68.93;;
52744;SDS011;38637;49.984;20.426;2022-11-20T13:55:43;120.57;;;72.38;;
52744;SDS011;38637;49.984;20.426;2022-11-20T14:01:01;112.43;;;70.35;;
52744;SDS011;38637;49.984;20.426;2022-11-20T14:03:35;122.13;;;74.93;;
52744;SDS011;38637;49.984;20.426;2022-11-20T14:06:02;184.30;;;115.33;;
52744;SDS011;38637;49.984;20.426;2022-11-20T14:08:36;108.60;;;67.88;;
52744;SDS011;38637;49.984;20.426;2022-11-20T14:11:18;107.70;;;68.68;;
52744;SDS011;38637;49.984;20.426;2022-11-20T14:13:52;104.60;;;67.63;;
52744;SDS011;38637;49.984;20.426;2022-11-20T14:16:21;115.45;;;74.50;;
52744;SDS011;38637;49.984;20.426;2022-11-20T14:18:47;117.55;;;78.38;;
52744;SDS011;38637;49.984;20.426;2022-11-20T14:21:21;118.00;;;75.73;;
52744;SDS011;38637;49.984;20.426;2022-11-20T14:23:48;121.00;;;79.68;;
52744;SDS011;38637;49.984;20.426;2022-11-20T14:26:17;128.83;;;85.20;;
52744;SDS011;38637;49.984;20.426;2022-11-20T14:28:47;118.95;;;79.97;;
52744;SDS011;38637;49.984;20.426;2022-11-20T14:31:18;130.30;;;80.65;;
52744;SDS011;38637;49.984;20.426;2022-11-20T14:33:50;131.82;;;86.10;;
52744;SDS011;38637;49.984;20.426;2022-11-20T14:36:17;122.85;;;80.78;;
52744;SDS011;38637;49.984;20.426;2022-11-20T14:38:45;127.55;;;82.20;;
52744;SDS011;38637;49.984;20.426;2022-11-20T14:41:22;122.45;;;82.40;;
52744;SDS011;38637;49.984;20.426;2022-11-20T14:43:51;132.70;;;82.18;;
52744;SDS011;38637;49.984;20.426;2022-11-20T14:46:21;148.55;;;99.07;;
52744;SDS011;38637;49.984;20.426;2022-11-20T14:48:48;117.63;;;81.90;;
52744;SDS011;38637;49.984;20.426;2022-11-20T14:51:23;125.40;;;84.38;;
52744;SDS011;38637;49.984;20.426;2022-11-20T14:56:39;114.75;;;77.22;;
52744;SDS011;38637;49.984;20.426;2022-11-20T14:59:05;117.97;;;81.47;;
52744;SDS011;38637;49.984;20.426;2022-11-20T15:01:31;115.90;;;77.10;;
52744;SDS011;38637;49.984;20.426;2022-11-20T15:06:29;127.15;;;85.60;;
52744;SDS011;38637;49.984;20.426;2022-11-20T15:08:56;148.50;;;97.55;;
52744;SDS011;38637;49.984;20.426;2022-11-20T15:11:25;140.57;;;93.10;;
52744;SDS011;38637;49.984;20.426;2022-11-20T15:13:54;132.13;;;88.60;;
52744;SDS011;38637;49.984;20.426;2022-11-20T15:16:21;132.03;;;91.50;;
52744;SDS011;38637;49.984;20.426;2022-11-20T15:18:48;120.43;;;80.13;;
52744;SDS011;38637;49.984;20.426;2022-11-20T15:21:14;125.07;;;83.50;;
52744;SDS011;38637;49.984;20.426;2022-11-20T15:23:41;194.38;;;120.95;;
52744;SDS011;38637;49.984;20.426;2022-11-20T15:26:08;202.18;;;124.32;;
52744;SDS011;38637;49.984;20.426;2022-11-20T15:28:44;225.38;;;133.43;;
52744;SDS011;38637;49.984;20.426;2022-11-20T15:33:38;215.60;;;123.72;;
52744;SDS011;38637;49.984;20.426;2022-11-20T15:36:04;274.77;;;155.27;;
52744;SDS011;38637;49.984;20.426;2022-11-20T15:38:30;325.67;;;173.03;;
52744;SDS011;38637;49.984;20.426;2022-11-20T15:40:55;184.50;;;114.40;;
52744;SDS011;38637;49.984;20.426;2022-11-20T15:43:20;188.03;;;115.70;;
52744;SDS011;38637;49.984;20.426;2022-11-20T15:45:47;132.70;;;87.13;;
52744;SDS011;38637;49.984;20.426;2022-11-20T15:48:21;132.55;;;86.00;;
52744;SDS011;38637;49.984;20.426;2022-11-20T15:51:34;179.90;;;109.30;;
52744;SDS011;38637;49.984;20.426;2022-11-20T15:53:42;160.77;;;102.63;;
52744;SDS011;38637;49.984;20.426;2022-11-20T15:56:11;157.67;;;100.00;;
52744;SDS011;38637;49.984;20.426;2022-11-20T15:58:37;169.82;;;109.22;;
52744;SDS011;38637;49.984;20.426;2022-11-20T16:01:03;169.23;;;108.43;;
52744;SDS011;38637;49.984;20.426;2022-11-20T16:03:28;235.33;;;143.00;;
52744;SDS011;38637;49.984;20.426;2022-11-20T16:05:54;235.68;;;129.20;;
52744;SDS011;38637;49.984;20.426;2022-11-20T16:08:20;248.63;;;137.43;;
52744;SDS011;38637;49.984;20.426;2022-11-20T16:10:45;160.80;;;101.00;;
52744;SDS011;38637;49.984;20.426;2022-11-20T16:13:12;189.80;;;111.87;;